createdAt,value
2019-02-28T00:00:32.254Z,0
2019-02-28T00:01:32.252Z,0
2019-02-28T00:02:32.493Z,0
2019-02-28T00:03:35.491Z,0
2019-02-28T00:04:36.439Z,0
2019-02-28T00:05:31.965Z,0
2019-02-28T00:06:32.457Z,0
2019-02-28T00:07:32.195Z,0
2019-02-28T00:08:31.941Z,0
2019-02-28T00:09:35.064Z,0
2019-02-28T00:10:35.469Z,0
2019-02-28T00:11:32.159Z,0
2019-02-28T00:12:31.903Z,0
2019-02-28T00:13:32.159Z,0
2019-02-28T00:14:34.693Z,0
2019-02-28T00:15:34.623Z,0
2019-02-28T00:16:32.118Z,0
2019-02-28T00:17:31.862Z,0
2019-02-28T00:18:32.355Z,0
2019-02-28T00:19:33.552Z,0
2019-02-28T00:20:36.641Z,0
2019-02-28T00:21:31.840Z,0
2019-02-28T00:22:31.841Z,0
2019-02-28T00:23:32.370Z,0
2019-02-28T00:24:36.280Z,0
2019-02-28T00:25:37.501Z,0
2019-02-28T00:26:32.049Z,0
2019-02-28T00:27:31.535Z,0
2019-02-28T00:28:35.023Z,0
2019-02-28T00:29:36.063Z,0
2019-02-28T00:30:31.991Z,0
2019-02-28T00:31:31.735Z,0
2019-02-28T00:32:34.115Z,0
2019-02-28T00:33:33.311Z,0
2019-02-28T00:34:31.972Z,0
2019-02-28T00:35:31.777Z,0
2019-02-28T00:36:31.965Z,0
2019-02-28T00:37:33.620Z,0
2019-02-28T00:38:36.722Z,0
2019-02-28T00:39:36.982Z,0
2019-02-28T00:40:31.931Z,0
2019-02-28T00:41:31.935Z,0
2019-02-28T00:42:31.673Z,0
2019-02-28T00:43:33.837Z,0
2019-02-28T00:44:35.143Z,0
2019-02-28T00:45:35.982Z,0
2019-02-28T00:46:31.876Z,0
2019-02-28T00:47:32.118Z,0
2019-02-28T00:48:31.860Z,0
2019-02-28T00:49:34.078Z,0
2019-02-28T00:50:34.846Z,0
2019-02-28T00:51:34.674Z,0
2019-02-28T00:52:37.537Z,0
2019-02-28T00:53:31.562Z,0
2019-02-28T00:54:31.580Z,0
2019-02-28T00:55:31.563Z,0
2019-02-28T00:56:31.545Z,0
2019-02-28T00:57:33.111Z,0
2019-02-28T00:58:35.411Z,0
2019-02-28T00:59:34.239Z,0
2019-02-28T01:00:31.547Z,0
2019-02-28T01:01:31.057Z,0
2019-02-28T01:02:31.754Z,0
2019-02-28T01:03:36.010Z,0
2019-02-28T01:04:37.529Z,0
2019-02-28T01:05:31.252Z,0
2019-02-28T01:06:31.980Z,0
2019-02-28T01:07:31.958Z,0
2019-02-28T01:08:31.818Z,0
2019-02-28T01:09:36.838Z,0
2019-02-28T01:10:31.447Z,0
2019-02-28T01:11:31.705Z,0
2019-02-28T01:12:31.450Z,0
2019-02-28T01:13:36.649Z,0
2019-02-28T01:14:37.672Z,0
2019-02-28T01:15:31.683Z,0
2019-02-28T01:16:31.896Z,0
2019-02-28T01:17:35.770Z,0
2019-02-28T01:18:34.298Z,0
2019-02-28T01:19:31.930Z,0
2019-02-28T01:20:31.610Z,0
2019-02-28T01:21:34.014Z,0
2019-02-28T01:22:33.761Z,0
2019-02-28T01:23:34.212Z,0
2019-02-28T01:24:34.450Z,0
2019-02-28T01:25:31.603Z,0
2019-02-28T01:26:32.968Z,0
2019-02-28T01:27:31.803Z,0
2019-02-28T01:28:36.248Z,0
2019-02-28T01:29:32.911Z,0
2019-02-28T01:30:31.506Z,0
2019-02-28T01:31:31.510Z,0
2019-02-28T01:32:31.244Z,0
2019-02-28T01:33:35.091Z,0
2019-02-28T01:34:36.540Z,0
2019-02-28T01:35:31.561Z,0
2019-02-28T01:36:31.240Z,0
2019-02-28T01:37:31.209Z,0
2019-02-28T01:38:33.400Z,0
2019-02-28T01:39:34.281Z,0
2019-02-28T01:40:31.187Z,0
2019-02-28T01:41:31.406Z,0
2019-02-28T01:42:31.409Z,0
2019-02-28T01:43:35.713Z,0
2019-02-28T01:44:35.510Z,0
2019-02-28T01:45:30.905Z,0
2019-02-28T01:46:31.655Z,0
2019-02-28T01:47:31.122Z,0
2019-02-28T01:48:32.898Z,0
2019-02-28T01:49:33.731Z,0
2019-02-28T01:50:34.509Z,0
2019-02-28T01:51:35.521Z,0
2019-02-28T01:52:31.575Z,0
2019-02-28T01:53:31.320Z,0
2019-02-28T01:54:34.416Z,0
2019-02-28T01:55:34.225Z,0
2019-02-28T01:56:31.316Z,0
2019-02-28T01:57:31.066Z,0
2019-02-28T01:58:31.275Z,0
2019-02-28T01:59:31.612Z,0
2019-02-28T02:00:33.678Z,0
2019-02-28T02:01:35.565Z,0
2019-02-28T02:02:30.982Z,0
2019-02-28T02:03:30.978Z,0
2019-02-28T02:04:31.448Z,0
2019-02-28T02:05:30.967Z,0
2019-02-28T02:06:34.452Z,0
2019-02-28T02:07:33.213Z,0
2019-02-28T02:08:31.214Z,0
2019-02-28T02:09:30.947Z,0
2019-02-28T02:10:31.423Z,0
2019-02-28T02:11:33.962Z,0
2019-02-28T02:12:36.030Z,0
2019-02-28T02:13:30.649Z,0
2019-02-28T02:14:30.941Z,0
2019-02-28T02:15:30.676Z,0
2019-02-28T02:16:36.129Z,0
2019-02-28T02:17:32.213Z,0
2019-02-28T02:18:30.839Z,0
2019-02-28T02:19:30.850Z,0
2019-02-28T02:20:34.642Z,0
2019-02-28T02:21:36.985Z,0
2019-02-28T02:22:31.292Z,0
2019-02-28T02:23:31.330Z,0
2019-02-28T02:24:36.834Z,0
2019-02-28T02:25:31.286Z,0
2019-02-28T02:26:31.044Z,0
2019-02-28T02:27:31.253Z,0
2019-02-28T02:28:36.220Z,0
2019-02-28T02:29:32.356Z,0
2019-02-28T02:30:31.263Z,0
2019-02-28T02:31:36.927Z,0
2019-02-28T02:32:36.998Z,0
2019-02-28T02:33:31.022Z,0
2019-02-28T02:34:36.276Z,0
2019-02-28T02:35:31.229Z,0
2019-02-28T02:36:30.950Z,0
2019-02-28T02:37:37.065Z,0
2019-02-28T02:38:30.940Z,0
2019-02-28T02:39:31.184Z,0
2019-02-28T02:40:32.704Z,0
2019-02-28T02:41:35.965Z,0
2019-02-28T02:42:30.675Z,0
2019-02-28T02:43:32.620Z,0
2019-02-28T02:44:37.696Z,0
2019-02-28T02:45:30.882Z,0
2019-02-28T02:46:31.184Z,0
2019-02-28T02:47:36.210Z,0
2019-02-28T02:48:31.115Z,0
2019-02-28T02:49:30.901Z,0
2019-02-28T02:50:39.213Z,0
2019-02-28T02:51:30.863Z,0
2019-02-28T02:52:37.429Z,0
2019-02-28T02:53:31.112Z,0
2019-02-28T02:54:30.597Z,0
2019-02-28T02:55:36.868Z,0
2019-02-28T02:56:31.046Z,0
2019-02-28T02:57:31.019Z,0
2019-02-28T02:58:36.214Z,0
2019-02-28T02:59:37.108Z,0
2019-02-28T03:00:30.748Z,0
2019-02-28T03:01:33.348Z,0
2019-02-28T03:02:36.879Z,0
2019-02-28T03:03:30.976Z,0
2019-02-28T03:04:32.464Z,0
2019-02-28T03:05:37.783Z,0
2019-02-28T03:06:30.700Z,0
2019-02-28T03:07:33.703Z,0
2019-02-28T03:08:38.501Z,0
2019-02-28T03:09:30.676Z,0
2019-02-28T03:10:30.669Z,0
2019-02-28T03:11:34.490Z,0
2019-02-28T03:12:33.746Z,0
2019-02-28T03:13:30.881Z,0
2019-02-28T03:14:30.650Z,0
2019-02-28T03:15:36.202Z,0
2019-02-28T03:16:35.293Z,0
2019-02-28T03:17:30.119Z,0
2019-02-28T03:18:30.932Z,0
2019-02-28T03:19:38.188Z,0
2019-02-28T03:20:30.340Z,0
2019-02-28T03:21:30.814Z,0
2019-02-28T03:22:37.867Z,0
2019-02-28T03:23:37.833Z,0
2019-02-28T03:24:30.573Z,0
2019-02-28T03:25:36.951Z,0
2019-02-28T03:26:30.767Z,0
2019-02-28T03:27:30.757Z,0
2019-02-28T03:28:36.384Z,0
2019-02-28T03:29:30.745Z,0
2019-02-28T03:30:40.660Z,0
2019-02-28T03:31:30.594Z,0
2019-02-28T03:32:42.779Z,0
2019-02-28T03:33:37.588Z,0
2019-02-28T03:34:30.498Z,0
2019-02-28T03:35:44.050Z,0
2019-02-28T03:36:31.783Z,0
2019-02-28T03:37:37.498Z,0
2019-02-28T03:38:30.665Z,0
2019-02-28T03:39:34.876Z,0
2019-02-28T03:40:30.410Z,0
2019-02-28T03:41:30.381Z,0
2019-02-28T03:42:35.427Z,0
2019-02-28T03:43:30.617Z,0
2019-02-28T03:44:30.926Z,0
2019-02-28T03:45:38.716Z,0
2019-02-28T03:46:30.638Z,0
2019-02-28T03:47:33.333Z,0
2019-02-28T03:48:37.496Z,0
2019-02-28T03:49:30.385Z,0
2019-02-28T03:50:32.275Z,0
2019-02-28T03:51:33.111Z,0
2019-02-28T03:52:30.278Z,0
2019-02-28T03:53:30.462Z,0
2019-02-28T03:54:33.732Z,0
2019-02-28T03:55:29.762Z,0
2019-02-28T03:56:30.230Z,0
2019-02-28T03:57:37.334Z,0
2019-02-28T03:58:30.450Z,0
2019-02-28T03:59:30.472Z,0
2019-02-28T04:00:37.688Z,0
2019-02-28T04:01:30.503Z,0
2019-02-28T04:02:31.947Z,0
2019-02-28T04:03:35.978Z,0
2019-02-28T04:04:30.155Z,0
2019-02-28T04:05:36.188Z,0
2019-02-28T04:06:30.437Z,0
2019-02-28T04:07:30.394Z,0
2019-02-28T04:08:36.410Z,0
2019-02-28T04:09:30.409Z,0
2019-02-28T04:10:31.798Z,0
2019-02-28T04:11:35.797Z,0
2019-02-28T04:12:30.350Z,0
2019-02-28T04:13:29.823Z,0
2019-02-28T04:14:37.439Z,0
2019-02-28T04:15:30.322Z,0
2019-02-28T04:16:30.294Z,0
2019-02-28T04:17:37.406Z,0
2019-02-28T04:18:30.318Z,0
2019-02-28T04:19:32.299Z,0
2019-02-28T04:20:35.866Z,0
2019-02-28T04:21:30.005Z,0
2019-02-28T04:22:32.670Z,0
2019-02-28T04:23:38.247Z,0
2019-02-28T04:24:29.966Z,0
2019-02-28T04:25:33.511Z,0
2019-02-28T04:26:34.715Z,0
2019-02-28T04:27:29.943Z,0
2019-02-28T04:28:29.936Z,0
2019-02-28T04:29:37.308Z,0
2019-02-28T04:30:29.686Z,0
2019-02-28T04:31:29.439Z,0
2019-02-28T04:32:36.261Z,0
2019-02-28T04:33:29.888Z,0
2019-02-28T04:34:30.184Z,0
2019-02-28T04:35:33.292Z,0
2019-02-28T04:36:35.389Z,0
2019-02-28T04:37:30.102Z,0
2019-02-28T04:38:30.707Z,0
2019-02-28T04:39:32.131Z,0
2019-02-28T04:40:33.382Z,0
2019-02-28T04:41:35.083Z,0
2019-02-28T04:42:29.843Z,0
2019-02-28T04:43:29.555Z,0
2019-02-28T04:44:29.591Z,0
2019-02-28T04:45:33.213Z,0
2019-02-28T04:46:33.919Z,0
2019-02-28T04:47:29.779Z,0
2019-02-28T04:48:29.734Z,0
2019-02-28T04:49:32.028Z,0
2019-02-28T04:50:33.500Z,0
2019-02-28T04:51:29.971Z,0
2019-02-28T04:52:29.515Z,0
2019-02-28T04:53:29.215Z,0
2019-02-28T04:54:32.681Z,0
2019-02-28T04:55:30.671Z,0
2019-02-28T04:56:29.497Z,0
2019-02-28T04:57:29.813Z,0
2019-02-28T04:58:32.763Z,0
2019-02-28T04:59:31.512Z,0
2019-02-28T05:00:28.899Z,0
2019-02-28T05:01:29.404Z,0
2019-02-28T05:02:29.314Z,0
2019-02-28T05:03:35.150Z,0
2019-02-28T05:04:29.344Z,0
2019-02-28T05:05:29.336Z,0
2019-02-28T05:06:31.051Z,0
2019-02-28T05:07:33.973Z,0
2019-02-28T05:08:29.353Z,0
2019-02-28T05:09:29.601Z,0
2019-02-28T05:10:31.830Z,0
2019-02-28T05:11:36.097Z,0
2019-02-28T05:12:29.269Z,0
2019-02-28T05:13:29.553Z,0
2019-02-28T05:14:32.849Z,0
2019-02-28T05:15:29.232Z,0
2019-02-28T05:16:29.259Z,0
2019-02-28T05:17:32.164Z,0
2019-02-28T05:18:31.990Z,0
2019-02-28T05:19:32.252Z,0
2019-02-28T05:20:28.945Z,0
2019-02-28T05:21:29.595Z,0
2019-02-28T05:22:32.480Z,0
2019-02-28T05:23:29.672Z,0
2019-02-28T05:24:28.901Z,0
2019-02-28T05:25:29.718Z,0
2019-02-28T05:26:31.439Z,0
2019-02-28T05:27:37.267Z,0
2019-02-28T05:28:29.111Z,0
2019-02-28T05:29:29.348Z,0
2019-02-28T05:30:29.141Z,0
2019-02-28T05:31:33.809Z,0
2019-02-28T05:32:29.074Z,0
2019-02-28T05:33:28.818Z,0
2019-02-28T05:34:29.054Z,0
2019-02-28T05:35:35.283Z,0
2019-02-28T05:36:29.595Z,0
2019-02-28T05:37:29.048Z,0
2019-02-28T05:38:31.993Z,0
2019-02-28T05:39:33.136Z,0
2019-02-28T05:40:29.254Z,0
2019-02-28T05:41:29.051Z,0
2019-02-28T05:42:31.917Z,0
2019-02-28T05:43:32.089Z,0
2019-02-28T05:44:30.191Z,0
2019-02-28T05:45:28.945Z,0
2019-02-28T05:46:32.384Z,0
2019-02-28T05:47:41.493Z,0
2019-02-28T05:48:28.949Z,0
2019-02-28T05:49:28.672Z,0
2019-02-28T05:50:28.644Z,0
2019-02-28T05:51:32.142Z,0
2019-02-28T05:52:30.407Z,0
2019-02-28T05:53:29.118Z,0
2019-02-28T05:54:29.112Z,0
2019-02-28T05:55:34.718Z,0
2019-02-28T05:56:32.735Z,0
2019-02-28T05:57:29.070Z,0
2019-02-28T05:58:29.975Z,0
2019-02-28T05:59:33.366Z,0
2019-02-28T06:00:29.058Z,0
2019-02-28T06:01:29.130Z,0
2019-02-28T06:02:32.876Z,5
2019-02-28T06:03:29.479Z,5
2019-02-28T06:04:28.791Z,5
2019-02-28T06:05:28.798Z,5
2019-02-28T06:06:30.210Z,5
2019-02-28T06:07:32.740Z,5
2019-02-28T06:08:29.001Z,5
2019-02-28T06:09:28.730Z,10
2019-02-28T06:10:33.125Z,10
2019-02-28T06:11:34.387Z,10
2019-02-28T06:12:28.952Z,10
2019-02-28T06:13:28.694Z,10
2019-02-28T06:14:33.338Z,15
2019-02-28T06:15:29.060Z,15
2019-02-28T06:16:28.891Z,15
2019-02-28T06:17:30.379Z,15
2019-02-28T06:18:35.959Z,20
2019-02-28T06:19:30.031Z,20
2019-02-28T06:20:28.880Z,20
2019-02-28T06:21:30.406Z,20
2019-02-28T06:22:30.526Z,25
2019-02-28T06:23:28.833Z,25
2019-02-28T06:24:28.847Z,25
2019-02-28T06:25:34.450Z,25
2019-02-28T06:26:31.771Z,30
2019-02-28T06:27:28.865Z,30
2019-02-28T06:28:33.098Z,30
2019-02-28T06:29:28.302Z,35
2019-02-28T06:30:30.036Z,35
2019-02-28T06:31:28.540Z,35
2019-02-28T06:32:34.336Z,35
2019-02-28T06:33:35.645Z,40
2019-02-28T06:34:28.724Z,40
2019-02-28T06:35:29.537Z,40
2019-02-28T06:36:33.755Z,45
2019-02-28T06:37:30.862Z,45
2019-02-28T06:38:28.921Z,45
2019-02-28T06:39:32.050Z,45
2019-02-28T06:40:32.551Z,50
2019-02-28T06:41:28.951Z,50
2019-02-28T06:42:28.695Z,50
2019-02-28T06:43:29.157Z,55
2019-02-28T06:44:33.674Z,55
2019-02-28T06:45:28.628Z,55
2019-02-28T06:46:28.151Z,60
2019-02-28T06:47:28.382Z,60
2019-02-28T06:48:33.641Z,60
2019-02-28T06:49:28.589Z,60
2019-02-28T06:50:28.599Z,65
2019-02-28T06:51:28.346Z,65
2019-02-28T06:52:32.102Z,65
2019-02-28T06:53:30.730Z,70
2019-02-28T06:54:28.550Z,70
2019-02-28T06:55:28.294Z,70
2019-02-28T06:56:33.266Z,70
2019-02-28T06:57:33.043Z,70
2019-02-28T06:58:30.446Z,75
2019-02-28T06:59:28.252Z,75
2019-02-28T07:00:28.525Z,75
2019-02-28T07:01:34.305Z,75
2019-02-28T07:02:33.493Z,80
2019-02-28T07:03:28.763Z,80
2019-02-28T07:04:28.734Z,80
2019-02-28T07:05:33.764Z,80
2019-02-28T07:06:28.728Z,85
2019-02-28T07:07:28.203Z,85
2019-02-28T07:08:36.194Z,85
2019-02-28T07:09:30.416Z,85
2019-02-28T07:10:28.547Z,85
2019-02-28T07:11:28.793Z,90
2019-02-28T07:12:35.553Z,90
2019-02-28T07:13:28.667Z,90
2019-02-28T07:14:28.243Z,90
2019-02-28T07:15:33.186Z,95
2019-02-28T07:16:30.632Z,95
2019-02-28T07:17:28.115Z,95
2019-02-28T07:18:29.087Z,95
2019-02-28T07:19:30.838Z,95
2019-02-28T07:20:28.078Z,100
2019-02-28T07:21:28.596Z,100
2019-02-28T07:22:29.250Z,100
2019-02-28T07:23:34.332Z,100
2019-02-28T07:24:28.534Z,100
2019-02-28T07:25:28.044Z,100
2019-02-28T07:26:28.920Z,100
2019-02-28T07:27:34.610Z,100
2019-02-28T07:28:27.810Z,100
2019-02-28T07:29:28.031Z,105
2019-02-28T07:30:29.034Z,105
2019-02-28T07:31:33.594Z,110
2019-02-28T07:32:31.270Z,110
2019-02-28T07:33:27.978Z,115
2019-02-28T07:34:31.312Z,120
2019-02-28T07:35:32.639Z,130
2019-02-28T07:36:28.220Z,130
2019-02-28T07:37:28.706Z,140
2019-02-28T07:38:33.084Z,150
2019-02-28T07:39:28.428Z,150
2019-02-28T07:40:28.420Z,155
2019-02-28T07:41:33.490Z,155
2019-02-28T07:42:28.183Z,160
2019-02-28T07:43:28.171Z,160
2019-02-28T07:44:31.544Z,160
2019-02-28T07:45:29.591Z,165
2019-02-28T07:46:29.576Z,165
2019-02-28T07:47:30.220Z,165
2019-02-28T07:48:34.860Z,165
2019-02-28T07:49:35.517Z,165
2019-02-28T07:50:27.949Z,165
2019-02-28T07:51:33.093Z,170
2019-02-28T07:52:35.039Z,170
2019-02-28T07:53:27.877Z,170
2019-02-28T07:54:31.303Z,170
2019-02-28T07:55:30.383Z,170
2019-02-28T07:56:28.484Z,170
2019-02-28T07:57:29.178Z,175
2019-02-28T07:58:33.395Z,175
2019-02-28T07:59:28.369Z,175
2019-02-28T08:00:27.712Z,175
2019-02-28T08:01:34.405Z,180
2019-02-28T08:02:27.910Z,180
2019-02-28T08:03:28.381Z,180
2019-02-28T08:04:28.447Z,180
2019-02-28T08:05:34.965Z,180
2019-02-28T08:06:28.385Z,185
2019-02-28T08:07:28.135Z,185
2019-02-28T08:08:33.016Z,185
2019-02-28T08:09:27.867Z,185
2019-02-28T08:10:27.732Z,185
2019-02-28T08:11:29.617Z,185
2019-02-28T08:12:30.696Z,190
2019-02-28T08:13:27.922Z,190
2019-02-28T08:14:28.448Z,190
2019-02-28T08:15:31.750Z,190
2019-02-28T08:16:30.578Z,190
2019-02-28T08:17:28.145Z,185
2019-02-28T08:18:28.883Z,190
2019-02-28T08:19:32.698Z,190
2019-02-28T08:20:30.602Z,190
2019-02-28T08:21:28.141Z,190
2019-02-28T08:22:33.763Z,190
2019-02-28T08:23:32.458Z,185
2019-02-28T08:24:29.070Z,185
2019-02-28T08:25:27.898Z,185
2019-02-28T08:26:29.253Z,185
2019-02-28T08:27:30.026Z,185
2019-02-28T08:28:29.535Z,185
2019-02-28T08:29:28.159Z,185
2019-02-28T08:30:29.186Z,190
2019-02-28T08:31:34.234Z,190
2019-02-28T08:32:28.146Z,180
2019-02-28T08:33:28.424Z,190
2019-02-28T08:34:32.741Z,190
2019-02-28T08:35:33.924Z,190
2019-02-28T08:36:28.191Z,190
2019-02-28T08:37:29.402Z,190
2019-02-28T08:38:30.032Z,190
2019-02-28T08:39:28.142Z,190
2019-02-28T08:40:29.340Z,190
2019-02-28T08:41:32.421Z,180
2019-02-28T08:42:27.887Z,190
2019-02-28T08:43:36.376Z,190
2019-02-28T08:44:32.156Z,195
2019-02-28T08:45:32.480Z,190
2019-02-28T08:46:28.147Z,195
2019-02-28T08:47:31.024Z,195
2019-02-28T08:48:34.885Z,195
2019-02-28T08:49:28.365Z,195
2019-02-28T08:50:31.231Z,200
2019-02-28T08:51:35.197Z,200
2019-02-28T08:52:28.099Z,200
2019-02-28T08:53:28.721Z,200
2019-02-28T08:54:33.476Z,200
2019-02-28T08:55:43.589Z,200
2019-02-28T08:56:28.107Z,205
2019-02-28T08:57:34.619Z,205
2019-02-28T08:58:28.092Z,205
2019-02-28T08:59:31.796Z,205
2019-02-28T09:00:33.571Z,205
2019-02-28T09:01:28.083Z,205
2019-02-28T09:02:28.066Z,205
2019-02-28T09:03:31.547Z,200
2019-02-28T09:04:28.101Z,200
2019-02-28T09:05:35.472Z,200
2019-02-28T09:06:30.027Z,200
2019-02-28T09:07:27.919Z,200
2019-02-28T09:08:30.129Z,205
2019-02-28T09:09:28.057Z,210
2019-02-28T09:10:27.781Z,205
2019-02-28T09:11:31.138Z,210
2019-02-28T09:12:29.848Z,210
2019-02-28T09:13:29.690Z,210
2019-02-28T09:14:28.097Z,210
2019-02-28T09:15:32.586Z,210
2019-02-28T09:16:28.293Z,210
2019-02-28T09:17:28.458Z,210
2019-02-28T09:18:27.762Z,210
2019-02-28T09:19:28.008Z,210
2019-02-28T09:20:28.045Z,210
2019-02-28T09:21:28.128Z,210
2019-02-28T09:22:31.922Z,210
2019-02-28T09:23:28.460Z,210
2019-02-28T09:24:28.489Z,210
2019-02-28T09:25:33.780Z,210
2019-02-28T09:26:31.210Z,210
2019-02-28T09:27:27.490Z,210
2019-02-28T09:28:29.023Z,210
2019-02-28T09:29:31.215Z,210
2019-02-28T09:30:33.933Z,210
2019-02-28T09:31:27.991Z,210
2019-02-28T09:32:27.767Z,210
2019-02-28T09:33:32.246Z,210
2019-02-28T09:34:30.597Z,210
2019-02-28T09:35:28.215Z,210
2019-02-28T09:36:30.987Z,210
2019-02-28T09:37:31.889Z,205
2019-02-28T09:38:27.964Z,205
2019-02-28T09:39:29.427Z,205
2019-02-28T09:40:33.886Z,205
2019-02-28T09:41:28.638Z,205
2019-02-28T09:42:27.955Z,210
2019-02-28T09:43:30.895Z,205
2019-02-28T09:44:31.368Z,205
2019-02-28T09:45:27.708Z,210
2019-02-28T09:46:28.155Z,205
2019-02-28T09:47:32.080Z,205
2019-02-28T09:48:27.689Z,210
2019-02-28T09:49:28.218Z,205
2019-02-28T09:50:33.133Z,205
2019-02-28T09:51:31.469Z,205
2019-02-28T09:52:29.969Z,205
2019-02-28T09:53:27.937Z,205
2019-02-28T09:54:33.354Z,205
2019-02-28T09:55:28.180Z,205
2019-02-28T09:56:29.021Z,205
2019-02-28T09:57:30.220Z,205
2019-02-28T09:58:33.379Z,205
2019-02-28T09:59:27.957Z,205
2019-02-28T10:00:29.985Z,205
2019-02-28T10:01:33.039Z,205
2019-02-28T10:02:28.150Z,205
2019-02-28T10:03:28.608Z,205
2019-02-28T10:04:32.422Z,200
2019-02-28T10:05:27.452Z,205
2019-02-28T10:06:28.171Z,205
2019-02-28T10:07:32.942Z,205
2019-02-28T10:08:28.936Z,210
2019-02-28T10:09:27.909Z,205
2019-02-28T10:10:31.012Z,205
2019-02-28T10:11:33.673Z,210
2019-02-28T10:12:27.908Z,200
2019-02-28T10:13:27.413Z,210
2019-02-28T10:14:34.556Z,210
2019-02-28T10:15:27.930Z,210
2019-02-28T10:16:28.153Z,210
2019-02-28T10:17:33.506Z,210
2019-02-28T10:18:28.171Z,215
2019-02-28T10:19:28.643Z,215
2019-02-28T10:20:33.542Z,215
2019-02-28T10:21:27.822Z,215
2019-02-28T10:22:27.917Z,215
2019-02-28T10:23:30.841Z,220
2019-02-28T10:24:31.390Z,220
2019-02-28T10:25:28.158Z,220
2019-02-28T10:26:27.422Z,220
2019-02-28T10:27:33.435Z,220
2019-02-28T10:28:27.891Z,205
2019-02-28T10:29:27.933Z,205
2019-02-28T10:30:38.076Z,210
2019-02-28T10:31:43.026Z,210
2019-02-28T10:32:27.637Z,210
2019-02-28T10:33:28.141Z,205
2019-02-28T10:34:35.333Z,205
2019-02-28T10:35:28.134Z,205
2019-02-28T10:36:28.135Z,210
2019-02-28T10:37:30.667Z,205
2019-02-28T10:38:29.413Z,210
2019-02-28T10:39:27.932Z,210
2019-02-28T10:40:27.795Z,215
2019-02-28T10:41:33.691Z,215
2019-02-28T10:42:27.646Z,215
2019-02-28T10:43:27.409Z,210
2019-02-28T10:44:32.899Z,220
2019-02-28T10:45:27.917Z,225
2019-02-28T10:46:29.522Z,220
2019-02-28T10:47:33.017Z,220
2019-02-28T10:48:27.395Z,220
2019-02-28T10:49:33.212Z,220
2019-02-28T10:50:31.906Z,220
2019-02-28T10:51:27.391Z,220
2019-02-28T10:52:33.155Z,215
2019-02-28T10:53:29.549Z,210
2019-02-28T10:54:27.904Z,210
2019-02-28T10:55:31.318Z,210
2019-02-28T10:56:31.657Z,205
2019-02-28T10:57:27.915Z,205
2019-02-28T10:58:27.898Z,205
2019-02-28T10:59:31.947Z,205
2019-02-28T11:00:34.470Z,205
2019-02-28T11:01:27.650Z,205
2019-02-28T11:02:29.351Z,205
2019-02-28T11:03:34.386Z,205
2019-02-28T11:04:27.680Z,205
2019-02-28T11:05:29.950Z,205
2019-02-28T11:06:32.423Z,205
2019-02-28T11:07:28.161Z,210
2019-02-28T11:08:28.315Z,210
2019-02-28T11:09:32.781Z,210
2019-02-28T11:10:28.832Z,210
2019-02-28T11:11:27.895Z,215
2019-02-28T11:12:31.200Z,210
2019-02-28T11:13:28.437Z,210
2019-02-28T11:14:28.155Z,215
2019-02-28T11:15:27.665Z,215
2019-02-28T11:16:30.622Z,215
2019-02-28T11:17:30.350Z,210
2019-02-28T11:18:27.665Z,205
2019-02-28T11:19:29.087Z,205
2019-02-28T11:20:35.688Z,205
2019-02-28T11:21:29.714Z,225
2019-02-28T11:22:27.898Z,235
2019-02-28T11:23:27.671Z,240
2019-02-28T11:24:33.981Z,255
2019-02-28T11:25:27.908Z,260
2019-02-28T11:26:27.915Z,265
2019-02-28T11:27:29.608Z,270
2019-02-28T11:28:32.654Z,275
2019-02-28T11:29:27.159Z,280
2019-02-28T11:30:27.782Z,275
2019-02-28T11:31:30.600Z,280
2019-02-28T11:32:31.329Z,275
2019-02-28T11:33:29.558Z,270
2019-02-28T11:34:27.860Z,265
2019-02-28T11:35:31.755Z,255
2019-02-28T11:36:30.431Z,245
2019-02-28T11:37:27.934Z,240
2019-02-28T11:38:30.689Z,240
2019-02-28T11:39:33.684Z,235
2019-02-28T11:40:27.248Z,230
2019-02-28T11:41:28.931Z,235
2019-02-28T11:42:33.677Z,235
2019-02-28T11:43:29.001Z,240
2019-02-28T11:44:28.167Z,245
2019-02-28T11:45:32.569Z,245
2019-02-28T11:46:27.686Z,255
2019-02-28T11:47:27.901Z,265
2019-02-28T11:48:29.687Z,270
2019-02-28T11:49:32.712Z,275
2019-02-28T11:50:28.188Z,280
2019-02-28T11:51:27.966Z,290
2019-02-28T11:52:31.818Z,300
2019-02-28T11:53:28.054Z,295
2019-02-28T11:54:28.223Z,300
2019-02-28T11:55:31.960Z,285
2019-02-28T11:56:32.920Z,280
2019-02-28T11:57:30.237Z,300
2019-02-28T11:58:27.696Z,300
2019-02-28T11:59:31.047Z,305
2019-02-28T12:00:27.954Z,305
2019-02-28T12:01:27.963Z,305
2019-02-28T12:02:31.649Z,300
2019-02-28T12:03:27.959Z,305
2019-02-28T12:04:27.708Z,300
2019-02-28T12:05:27.775Z,300
2019-02-28T12:06:31.009Z,295
2019-02-28T12:07:28.212Z,290
2019-02-28T12:08:29.631Z,285
2019-02-28T12:09:28.559Z,280
2019-02-28T12:10:29.452Z,265
2019-02-28T12:11:29.928Z,260
2019-02-28T12:12:27.995Z,275
2019-02-28T12:13:29.002Z,265
2019-02-28T12:14:31.413Z,270
2019-02-28T12:15:29.619Z,265
2019-02-28T12:16:29.756Z,270
2019-02-28T12:17:32.918Z,260
2019-02-28T12:18:28.628Z,265
2019-02-28T12:19:28.402Z,265
2019-02-28T12:20:33.313Z,285
2019-02-28T12:21:27.996Z,290
2019-02-28T12:22:27.992Z,285
2019-02-28T12:23:31.993Z,295
2019-02-28T12:24:29.330Z,305
2019-02-28T12:25:27.786Z,295
2019-02-28T12:26:28.168Z,295
2019-02-28T12:27:30.533Z,295
2019-02-28T12:28:28.013Z,295
2019-02-28T12:29:27.799Z,300
2019-02-28T12:30:29.767Z,305
2019-02-28T12:31:28.006Z,315
2019-02-28T12:32:28.261Z,315
2019-02-28T12:33:32.185Z,285
2019-02-28T12:34:32.087Z,290
2019-02-28T12:35:27.762Z,285
2019-02-28T12:36:29.837Z,255
2019-02-28T12:37:31.684Z,245
2019-02-28T12:38:31.425Z,240
2019-02-28T12:39:28.506Z,270
2019-02-28T12:40:28.274Z,260
2019-02-28T12:41:32.159Z,250
2019-02-28T12:42:27.525Z,245
2019-02-28T12:43:27.796Z,225
2019-02-28T12:44:27.595Z,220
2019-02-28T12:45:33.362Z,210
2019-02-28T12:46:27.520Z,210
2019-02-28T12:47:29.382Z,205
2019-02-28T12:48:29.586Z,200
2019-02-28T12:49:34.173Z,195
2019-02-28T12:50:29.334Z,190
2019-02-28T12:51:28.034Z,190
2019-02-28T12:52:27.822Z,190
2019-02-28T12:53:34.746Z,185
2019-02-28T12:54:30.256Z,185
2019-02-28T12:55:28.298Z,185
2019-02-28T12:56:28.030Z,180
2019-02-28T12:57:31.300Z,180
2019-02-28T12:58:36.086Z,180
2019-02-28T12:59:28.065Z,180
2019-02-28T13:00:31.172Z,180
2019-02-28T13:01:28.316Z,180
2019-02-28T13:02:28.326Z,175
2019-02-28T13:03:30.138Z,175
2019-02-28T13:04:28.061Z,170
2019-02-28T13:05:27.809Z,170
2019-02-28T13:06:33.328Z,170
2019-02-28T13:07:30.375Z,170
2019-02-28T13:08:28.347Z,170
2019-02-28T13:09:27.817Z,170
2019-02-28T13:10:35.918Z,170
2019-02-28T13:11:27.825Z,170
2019-02-28T13:12:28.310Z,170
2019-02-28T13:13:35.722Z,170
2019-02-28T13:14:28.072Z,170
2019-02-28T13:15:28.108Z,170
2019-02-28T13:16:30.192Z,170
2019-02-28T13:17:31.588Z,165
2019-02-28T13:18:28.071Z,165
2019-02-28T13:19:29.177Z,165
2019-02-28T13:20:36.390Z,165
2019-02-28T13:21:27.831Z,165
2019-02-28T13:22:32.608Z,165
2019-02-28T13:23:28.112Z,165
2019-02-28T13:24:27.834Z,165
2019-02-28T13:25:31.463Z,165
2019-02-28T13:26:30.469Z,165
2019-02-28T13:27:28.063Z,150
2019-02-28T13:28:32.613Z,165
2019-02-28T13:29:32.346Z,165
2019-02-28T13:30:28.153Z,165
2019-02-28T13:31:30.474Z,170
2019-02-28T13:32:28.339Z,170
2019-02-28T13:33:28.076Z,170
2019-02-28T13:34:32.417Z,170
2019-02-28T13:35:27.843Z,165
2019-02-28T13:36:31.174Z,165
2019-02-28T13:37:27.836Z,170
2019-02-28T13:38:29.499Z,170
2019-02-28T13:39:34.318Z,170
2019-02-28T13:40:29.482Z,165
2019-02-28T13:41:34.750Z,165
2019-02-28T13:42:27.842Z,165
2019-02-28T13:43:32.142Z,165
2019-02-28T13:44:31.487Z,165
2019-02-28T13:45:32.334Z,160
2019-02-28T13:46:34.745Z,160
2019-02-28T13:47:28.129Z,160
2019-02-28T13:48:40.588Z,160
2019-02-28T13:49:27.585Z,160
2019-02-28T13:50:35.171Z,160
2019-02-28T13:51:28.921Z,155
2019-02-28T13:52:30.135Z,155
2019-02-28T13:53:34.881Z,155
2019-02-28T13:54:29.192Z,155
2019-02-28T13:55:29.482Z,155
2019-02-28T13:56:32.885Z,155
2019-02-28T13:57:28.105Z,155
2019-02-28T13:58:31.542Z,155
2019-02-28T13:59:31.809Z,155
2019-02-28T14:00:28.389Z,155
2019-02-28T14:01:29.370Z,155
2019-02-28T14:02:36.081Z,155
2019-02-28T14:03:28.403Z,155
2019-02-28T14:04:36.566Z,150
2019-02-28T14:05:28.130Z,150
2019-02-28T14:06:29.027Z,150
2019-02-28T14:07:33.651Z,150
2019-02-28T14:08:28.115Z,150
2019-02-28T14:09:31.566Z,150
2019-02-28T14:10:35.487Z,150
2019-02-28T14:11:28.226Z,150
2019-02-28T14:12:31.323Z,150
2019-02-28T14:13:29.914Z,150